Tygh Valley, OR

10:02 PM PST on January 23, 2018 (GMT -0800)
| | Change Station

Elev -9999 ft 0.00 °N, 0.00 °E | Updated 0 second ago

Rain
Rain
°F
Feels Like °F
N
Wind Variable Wind from North
Gusts mph

Today
High -- | Low -- °F
--% Chance of Precip.
Yesterday
High -- | Low -- °F
Precip. -- in
Pressure 29.91 in
Visibility 6.0 miles
Clouds Mostly Cloudy 300 ft
Overcast 1200 ft
Dew Point Not available.
Humidity Not available.
Rainfall --
Snow Depth Not available.
7:35 AM 5:00 PM
Waxing Crescent, 43% visible
METAR KDLS 240553Z AUTO 00000KT 6SM BR BKN003 OVC012 04/03 A2990 RMK AO2 RAE30 SLP128 P0001 60009 T00390033 10044 20039 56018
Pressure 29.91 in
Visibility 6.0 miles
Clouds Mostly Cloudy 300 ft
Overcast 1200 ft
Dew Point Not available.
Humidity Not available.
Rainfall --
Snow Depth Not available.
7:35 AM 5:00 PM
Waxing Crescent, 43% visible
METAR KDLS 240553Z AUTO 00000KT 6SM BR BKN003 OVC012 04/03 A2990 RMK AO2 RAE30 SLP128 P0001 60009 T00390033 10044 20039 56018

Get Severe Weather Alerts

Thanks for signing up!

Be on the lookout for a verification email in your inbox.

You'll start receiving the daily forecast at 6 AM.

×

10-Day Weather Forecast

Almanac

Astronomy

Jan. 23, 2018 Rise Set
Actual Time
Civil Twilight
Nautical Twilight
Astronomical Twilight
Moon
Length of Visible Light
Length of Day
Tomorrow will be .
, % of the Moon is Illuminated

Today's Extremes

State Highs State Lows

Community

WunderPhotos

Category 6

Welcome to Category 6. This is the collective home for Weather Underground's featured writeups by Dr. Jeff Masters (right), Bob Henson (left), Chris Burt, and other regular contributors.

Nearby

Air Quality

  Air Quality AQ Index Pollutant
Not available.

Snow Depth

Station Depth Elevation

Earthquake Activity

City Distance Mag. Time & Date
Minimum magnitude displayed is 2.5.

Coastal Water Temperatures

Place Temperature

Stations

Nearby Weather Stations

Station Location Temp. Windchill Dew Point Humidity Wind Precip. Elev Updated Type
                   

Watches & Warnings

There are currently no watches in effect.